createdAt,value
2022-08-29T00:00:17.808Z,12.00
2022-08-29T00:02:47.189Z,11.90
2022-08-29T00:05:15.342Z,11.80
2022-08-29T00:07:44.808Z,11.80
2022-08-29T00:10:13.319Z,11.70
2022-08-29T00:12:41.482Z,11.70
2022-08-29T00:15:11.353Z,11.70
2022-08-29T00:17:39.614Z,11.60
2022-08-29T00:20:10.450Z,11.60
2022-08-29T00:22:38.479Z,11.50
2022-08-29T00:25:09.080Z,11.50
2022-08-29T00:27:37.186Z,11.40
2022-08-29T00:30:06.245Z,11.40
2022-08-29T00:32:36.334Z,11.40
2022-08-29T00:35:05.768Z,11.30
2022-08-29T00:37:33.889Z,11.30
2022-08-29T00:40:02.243Z,11.30
2022-08-29T00:42:32.382Z,11.20
2022-08-29T00:45:00.430Z,11.20
2022-08-29T00:47:33.730Z,11.20
2022-08-29T00:50:03.094Z,11.10
2022-08-29T00:52:37.242Z,11.10
2022-08-29T00:55:11.244Z,11.00
2022-08-29T00:57:43.845Z,11.00
2022-08-29T01:00:14.593Z,11.00
2022-08-29T01:02:42.969Z,11.00
2022-08-29T01:05:13.594Z,11.00
2022-08-29T01:07:43.801Z,10.90
2022-08-29T01:10:32.468Z,11.00
2022-08-29T01:13:01.491Z,10.90
2022-08-29T01:15:31.366Z,10.90
2022-08-29T01:18:01.138Z,10.90
2022-08-29T01:20:38.685Z,10.90
2022-08-29T01:23:14.149Z,10.80
2022-08-29T01:25:49.205Z,10.80
2022-08-29T01:28:20.895Z,10.80
2022-08-29T01:31:00.446Z,10.70
2022-08-29T01:33:40.765Z,10.70
2022-08-29T01:36:11.670Z,10.70
2022-08-29T01:38:41.364Z,10.60
2022-08-29T01:41:12.520Z,10.70
2022-08-29T01:43:43.400Z,10.60
2022-08-29T01:46:14.328Z,10.50
2022-08-29T01:48:44.709Z,10.50
2022-08-29T01:51:13.312Z,10.50
2022-08-29T01:53:41.760Z,10.50
2022-08-29T01:56:18.448Z,10.40
2022-08-29T01:58:48.910Z,10.40
2022-08-29T02:01:19.507Z,10.30
2022-08-29T02:03:50.065Z,10.30
2022-08-29T02:06:18.165Z,10.30
2022-08-29T02:08:46.799Z,10.30
2022-08-29T02:11:17.341Z,10.20
2022-08-29T02:13:47.194Z,10.20
2022-08-29T02:16:16.018Z,10.10
2022-08-29T02:18:44.794Z,10.10
2022-08-29T02:21:14.899Z,10.10
2022-08-29T02:23:45.108Z,10.10
2022-08-29T02:26:13.294Z,10.10
2022-08-29T02:28:42.843Z,10.00
2022-08-29T02:31:11.043Z,10.00
2022-08-29T02:33:39.231Z,10.00
2022-08-29T02:36:08.105Z,10.00
2022-08-29T02:38:37.739Z,9.90
2022-08-29T02:41:07.386Z,9.90
2022-08-29T02:43:37.328Z,10.00
2022-08-29T02:46:07.455Z,9.90
2022-08-29T02:48:36.868Z,9.90
2022-08-29T02:51:05.764Z,9.90
2022-08-29T02:53:33.981Z,9.90
2022-08-29T02:56:02.175Z,9.90
2022-08-29T02:58:30.308Z,9.90
2022-08-29T03:00:58.469Z,10.00
2022-08-29T03:03:28.230Z,10.00
2022-08-29T03:05:56.699Z,9.90
2022-08-29T03:08:24.848Z,9.90
2022-08-29T03:10:52.918Z,9.90
2022-08-29T03:13:20.930Z,9.80
2022-08-29T03:15:49.063Z,9.90
2022-08-29T03:18:17.069Z,9.80
2022-08-29T03:20:46.528Z,9.70
2022-08-29T03:23:15.400Z,9.70
2022-08-29T03:25:43.549Z,9.70
2022-08-29T03:28:11.661Z,9.60
2022-08-29T03:30:40.130Z,9.60
2022-08-29T03:33:11.631Z,9.60
2022-08-29T03:35:40.149Z,9.60
2022-08-29T03:38:09.538Z,9.60
2022-08-29T03:40:38.043Z,9.80
2022-08-29T03:43:06.069Z,9.60
2022-08-29T03:45:34.148Z,9.50
2022-08-29T03:48:02.288Z,9.50
2022-08-29T03:50:30.322Z,9.40
2022-08-29T03:52:58.371Z,9.50
2022-08-29T03:55:27.864Z,9.50
2022-08-29T03:57:56.770Z,9.50
2022-08-29T04:00:25.287Z,9.50
2022-08-29T04:02:55.571Z,9.40
2022-08-29T04:05:23.836Z,9.40
2022-08-29T04:07:53.989Z,9.40
2022-08-29T04:10:24.118Z,9.40
2022-08-29T04:12:55.017Z,9.30
2022-08-29T04:15:24.015Z,9.20
2022-08-29T04:17:54.344Z,9.20
2022-08-29T04:20:25.712Z,9.20
2022-08-29T04:22:55.274Z,9.10
2022-08-29T04:25:26.414Z,9.10
2022-08-29T04:27:56.962Z,9.10
2022-08-29T04:30:28.103Z,9.20
2022-08-29T04:32:56.354Z,9.10
2022-08-29T04:35:25.244Z,9.20
2022-08-29T04:37:53.243Z,9.10
2022-08-29T04:40:22.920Z,9.20
2022-08-29T04:42:51.898Z,9.20
2022-08-29T04:45:24.087Z,9.20
2022-08-29T04:47:52.361Z,9.20
2022-08-29T04:50:22.803Z,9.30
2022-08-29T04:52:52.331Z,9.20
2022-08-29T04:55:25.751Z,9.20
2022-08-29T04:57:56.320Z,9.20
2022-08-29T05:00:30.311Z,9.20
2022-08-29T05:02:59.707Z,9.20
2022-08-29T05:05:28.903Z,9.20
2022-08-29T05:07:57.048Z,9.20
2022-08-29T05:10:26.306Z,9.20
2022-08-29T05:12:54.378Z,9.20
2022-08-29T05:15:22.550Z,9.20
2022-08-29T05:17:53.211Z,9.20
2022-08-29T05:20:21.929Z,9.20
2022-08-29T05:22:49.977Z,9.20
2022-08-29T05:25:18.700Z,9.20
2022-08-29T05:27:47.203Z,9.30
2022-08-29T05:30:16.400Z,9.40
2022-08-29T05:33:04.616Z,9.50
2022-08-29T05:35:34.408Z,9.60
2022-08-29T05:38:15.201Z,9.70
2022-08-29T05:40:43.680Z,9.80
2022-08-29T05:43:12.006Z,9.90
2022-08-29T05:45:41.700Z,9.90
2022-08-29T05:48:11.475Z,10.10
2022-08-29T05:50:41.824Z,10.20
2022-08-29T05:53:09.940Z,10.40
2022-08-29T05:55:41.857Z,10.60
2022-08-29T05:58:10.182Z,10.60
2022-08-29T06:00:40.198Z,10.80
2022-08-29T06:03:10.990Z,10.90
2022-08-29T06:05:40.494Z,11.00
2022-08-29T06:08:09.621Z,11.10
2022-08-29T06:10:43.456Z,11.30
2022-08-29T06:13:11.641Z,11.40
2022-08-29T06:15:39.968Z,11.60
2022-08-29T06:18:08.085Z,11.70
2022-08-29T06:20:38.697Z,11.80
2022-08-29T06:23:06.761Z,11.90
2022-08-29T06:25:40.036Z,12.00
2022-08-29T06:28:08.522Z,12.10
2022-08-29T06:30:36.707Z,12.30
2022-08-29T06:33:05.055Z,12.50
2022-08-29T06:35:33.210Z,12.70
2022-08-29T06:38:02.711Z,13.00
2022-08-29T06:40:30.893Z,13.20
2022-08-29T06:42:59.482Z,13.40
2022-08-29T06:45:27.547Z,13.50
2022-08-29T06:47:55.691Z,13.60
2022-08-29T06:50:23.781Z,13.70
2022-08-29T06:52:51.891Z,13.80
2022-08-29T06:55:24.753Z,14.00
2022-08-29T06:57:54.431Z,14.00
2022-08-29T07:00:23.558Z,14.10
2022-08-29T07:02:53.032Z,14.20
2022-08-29T07:05:22.036Z,14.30
2022-08-29T07:07:50.162Z,14.40
2022-08-29T07:10:22.325Z,14.40
2022-08-29T07:12:53.022Z,14.50
2022-08-29T07:15:22.243Z,14.60
2022-08-29T07:17:50.881Z,14.70
2022-08-29T07:20:19.284Z,14.80
2022-08-29T07:22:51.368Z,15.00
2022-08-29T07:25:21.484Z,15.10
2022-08-29T07:27:52.229Z,15.20
2022-08-29T07:30:23.874Z,15.40
2022-08-29T07:32:52.441Z,15.50
2022-08-29T07:35:30.013Z,15.70
2022-08-29T07:37:59.614Z,15.80
2022-08-29T07:40:27.921Z,15.90
2022-08-29T07:42:56.133Z,15.90
2022-08-29T07:45:25.653Z,16.10
2022-08-29T07:47:53.955Z,16.10
2022-08-29T07:50:22.263Z,16.20
2022-08-29T07:52:50.366Z,16.30
2022-08-29T07:55:18.518Z,16.40
2022-08-29T07:57:48.457Z,16.60
2022-08-29T08:00:17.017Z,16.70
2022-08-29T08:02:47.627Z,16.90
2022-08-29T08:05:15.813Z,17.20
2022-08-29T08:07:44.279Z,17.40
2022-08-29T08:10:17.632Z,17.50
2022-08-29T08:12:46.027Z,17.50
2022-08-29T08:15:15.010Z,17.70
2022-08-29T08:17:44.336Z,18.00
2022-08-29T08:20:14.101Z,18.40
2022-08-29T08:22:42.195Z,18.70
2022-08-29T08:25:11.083Z,19.00
2022-08-29T08:27:43.426Z,19.20
2022-08-29T08:30:12.659Z,19.40
2022-08-29T08:32:46.102Z,19.40
2022-08-29T08:35:19.634Z,19.70
2022-08-29T08:37:49.527Z,20.00
2022-08-29T08:40:23.230Z,20.40
2022-08-29T08:42:51.744Z,20.80
2022-08-29T08:45:22.936Z,21.20
2022-08-29T08:47:54.436Z,21.50
2022-08-29T08:50:32.615Z,21.90
2022-08-29T08:53:05.473Z,22.10
2022-08-29T08:55:41.818Z,22.40
2022-08-29T08:58:16.595Z,22.50
2022-08-29T09:00:56.191Z,22.50
2022-08-29T09:04:01.957Z,22.50
2022-08-29T09:06:44.728Z,22.80
2022-08-29T09:09:22.117Z,23.60
2022-08-29T09:12:01.367Z,23.80
2022-08-29T09:14:48.132Z,23.70
2022-08-29T09:17:22.122Z,23.70
2022-08-29T09:19:52.088Z,24.10
2022-08-29T09:22:26.617Z,24.50
2022-08-29T09:25:03.959Z,24.70
2022-08-29T09:27:35.022Z,24.90
2022-08-29T09:30:09.002Z,24.90
2022-08-29T09:32:54.932Z,25.00
2022-08-29T09:35:28.195Z,24.80
2022-08-29T09:38:01.133Z,24.60
2022-08-29T09:40:45.228Z,24.80
2022-08-29T09:43:19.945Z,25.30
2022-08-29T09:46:10.113Z,25.60
2022-08-29T09:48:40.399Z,26.10
2022-08-29T09:51:15.563Z,26.10
2022-08-29T09:53:45.223Z,26.70
2022-08-29T09:56:19.763Z,26.80
2022-08-29T09:59:00.046Z,27.10
2022-08-29T10:01:29.818Z,27.80
2022-08-29T10:04:01.048Z,28.20
2022-08-29T10:06:32.146Z,28.30
2022-08-29T10:09:04.707Z,28.70
2022-08-29T10:11:39.010Z,29.10
2022-08-29T10:14:12.932Z,29.20
2022-08-29T10:17:18.203Z,29.40
2022-08-29T10:19:46.637Z,29.80
2022-08-29T10:22:26.354Z,29.40
2022-08-29T10:25:03.548Z,28.80
2022-08-29T10:27:41.917Z,28.60
2022-08-29T10:30:13.566Z,28.00
2022-08-29T10:33:08.149Z,28.10
2022-08-29T10:35:41.390Z,28.80
2022-08-29T10:38:18.099Z,28.50
2022-08-29T10:40:52.192Z,28.20
2022-08-29T10:43:41.164Z,28.50
2022-08-29T10:46:26.954Z,29.00
2022-08-29T10:49:03.654Z,28.70
2022-08-29T10:51:38.909Z,29.30
2022-08-29T10:54:14.335Z,29.50
2022-08-29T10:56:47.527Z,29.90
2022-08-29T10:59:21.362Z,29.80
2022-08-29T11:01:54.709Z,29.90
2022-08-29T11:04:29.136Z,29.60
2022-08-29T11:07:02.192Z,29.00
2022-08-29T11:09:34.882Z,27.50
2022-08-29T11:12:17.809Z,26.50
2022-08-29T11:14:53.235Z,25.50
2022-08-29T11:17:24.441Z,25.40
2022-08-29T11:20:02.087Z,25.50
2022-08-29T11:22:36.035Z,25.50
2022-08-29T11:25:10.327Z,25.50
2022-08-29T11:27:48.237Z,25.30
2022-08-29T11:30:22.984Z,25.10
2022-08-29T11:33:03.847Z,25.00
2022-08-29T11:35:46.258Z,24.80
2022-08-29T11:38:51.029Z,24.80
2022-08-29T11:41:26.937Z,25.00
2022-08-29T11:44:04.139Z,24.70
2022-08-29T11:46:39.787Z,24.60
2022-08-29T11:49:40.517Z,24.60
2022-08-29T11:52:27.256Z,24.50
2022-08-29T11:55:33.939Z,24.00
2022-08-29T11:58:40.256Z,23.90
2022-08-29T12:01:12.220Z,24.00
2022-08-29T12:03:49.174Z,24.20
2022-08-29T12:06:38.819Z,24.30
2022-08-29T12:09:19.844Z,24.20
2022-08-29T12:12:32.207Z,24.10
2022-08-29T12:15:01.626Z,24.10
2022-08-29T12:18:01.394Z,24.00
2022-08-29T12:20:44.356Z,23.90
2022-08-29T12:23:27.747Z,23.80
2022-08-29T12:26:21.623Z,23.90
2022-08-29T12:28:50.372Z,23.90
2022-08-29T12:31:56.778Z,23.90
2022-08-29T12:34:51.641Z,24.00
2022-08-29T12:37:34.594Z,23.90
2022-08-29T12:40:21.384Z,24.00
2022-08-29T12:43:05.993Z,24.40
2022-08-29T12:45:37.448Z,24.70
2022-08-29T12:48:09.747Z,25.10
2022-08-29T12:50:45.197Z,25.40
2022-08-29T12:53:19.306Z,25.40
2022-08-29T12:55:50.863Z,25.40
2022-08-29T12:58:37.757Z,25.70
2022-08-29T13:01:08.980Z,26.20
2022-08-29T13:03:37.564Z,27.00
2022-08-29T13:06:13.862Z,27.50
2022-08-29T13:08:42.139Z,27.80
2022-08-29T13:11:12.767Z,28.30
2022-08-29T13:13:41.165Z,28.70
2022-08-29T13:16:22.642Z,28.70
2022-08-29T13:19:09.689Z,28.60
2022-08-29T13:21:40.172Z,28.10
2022-08-29T13:24:12.749Z,27.20
2022-08-29T13:27:03.207Z,26.50
2022-08-29T13:29:37.487Z,26.00
2022-08-29T13:32:20.483Z,25.80
2022-08-29T13:35:02.410Z,25.70
2022-08-29T13:37:34.720Z,25.80
2022-08-29T13:40:36.868Z,26.10
2022-08-29T13:43:07.327Z,26.50
2022-08-29T13:45:39.986Z,26.70
2022-08-29T13:48:18.998Z,26.80
2022-08-29T13:53:16.974Z,26.30
2022-08-29T13:55:45.632Z,25.90
2022-08-29T13:58:15.108Z,25.40
2022-08-29T14:00:44.076Z,25.10
2022-08-29T14:03:14.460Z,24.60
2022-08-29T14:05:43.021Z,24.30
2022-08-29T14:08:14.592Z,24.10
2022-08-29T14:10:45.338Z,24.20
2022-08-29T14:13:14.503Z,24.80
2022-08-29T14:15:42.907Z,25.60
2022-08-29T14:18:11.502Z,26.40
2022-08-29T14:20:39.921Z,27.00
2022-08-29T14:23:08.264Z,27.10
2022-08-29T14:25:39.084Z,27.00
2022-08-29T14:28:09.824Z,27.10
2022-08-29T14:30:42.365Z,26.90
2022-08-29T14:33:20.664Z,26.60
2022-08-29T14:35:50.299Z,26.10
2022-08-29T14:38:20.024Z,25.70
2022-08-29T14:40:48.553Z,25.30
2022-08-29T14:43:18.577Z,25.00
2022-08-29T14:45:46.677Z,25.00
2022-08-29T14:48:14.943Z,25.10
2022-08-29T14:50:43.136Z,25.30
2022-08-29T14:53:11.820Z,25.30
2022-08-29T14:55:40.170Z,25.60
2022-08-29T14:58:08.776Z,25.90
2022-08-29T15:00:38.410Z,26.00
2022-08-29T15:03:06.702Z,26.00
2022-08-29T15:05:35.487Z,25.80
2022-08-29T15:08:06.577Z,25.80
2022-08-29T15:10:35.072Z,25.90
2022-08-29T15:13:03.449Z,25.90
2022-08-29T15:15:33.318Z,26.00
2022-08-29T15:18:05.391Z,26.00
2022-08-29T15:20:37.337Z,26.10
2022-08-29T15:23:06.428Z,26.10
2022-08-29T15:25:34.628Z,26.00
2022-08-29T15:28:03.045Z,25.90
2022-08-29T15:30:31.154Z,25.80
2022-08-29T15:32:59.721Z,25.80
2022-08-29T15:35:29.164Z,25.80
2022-08-29T15:37:57.444Z,25.80
2022-08-29T15:40:25.823Z,25.70
2022-08-29T15:42:54.058Z,25.60
2022-08-29T15:45:22.779Z,25.60
2022-08-29T15:47:53.892Z,25.60
2022-08-29T15:50:22.781Z,25.40
2022-08-29T15:52:52.648Z,25.10
2022-08-29T15:55:21.292Z,24.80
2022-08-29T15:57:51.457Z,24.30
2022-08-29T16:00:29.788Z,24.00
2022-08-29T16:03:03.798Z,23.70
2022-08-29T16:05:33.383Z,23.30
2022-08-29T16:08:03.538Z,23.20
2022-08-29T16:10:32.194Z,23.30
2022-08-29T16:13:00.888Z,23.40
2022-08-29T16:15:31.346Z,23.60
2022-08-29T16:18:00.184Z,23.70
2022-08-29T16:20:28.665Z,23.70
2022-08-29T16:22:57.296Z,23.70
2022-08-29T16:25:27.952Z,23.70
2022-08-29T16:27:56.743Z,23.60
2022-08-29T16:30:25.537Z,23.60
2022-08-29T16:32:54.942Z,23.50
2022-08-29T16:35:23.625Z,23.40
2022-08-29T16:38:02.120Z,23.30
2022-08-29T16:40:41.481Z,23.30
2022-08-29T16:43:09.627Z,23.20
2022-08-29T16:45:38.166Z,23.10
2022-08-29T16:48:14.760Z,23.10
2022-08-29T16:50:44.001Z,23.00
2022-08-29T16:53:12.075Z,22.90
2022-08-29T16:55:41.572Z,22.90
2022-08-29T16:58:27.035Z,22.80
2022-08-29T17:00:55.069Z,22.70
2022-08-29T17:03:23.194Z,22.70
2022-08-29T17:05:51.267Z,22.50
2022-08-29T17:08:18.828Z,22.30
2022-08-29T17:10:47.199Z,22.10
2022-08-29T17:13:14.281Z,22.00
2022-08-29T17:15:41.405Z,21.80
2022-08-29T17:18:09.800Z,21.70
2022-08-29T17:20:38.103Z,21.50
2022-08-29T17:23:10.187Z,21.40
2022-08-29T17:25:39.142Z,21.30
2022-08-29T17:28:24.527Z,21.10
2022-08-29T17:30:53.135Z,21.00
2022-08-29T17:33:21.874Z,20.90
2022-08-29T17:35:50.221Z,20.80
2022-08-29T17:38:18.815Z,20.60
2022-08-29T17:40:48.934Z,20.50
2022-08-29T17:43:19.693Z,20.40
2022-08-29T17:45:48.690Z,20.30
2022-08-29T17:48:17.399Z,20.20
2022-08-29T17:50:45.704Z,20.20
2022-08-29T17:53:13.850Z,20.10
2022-08-29T17:55:41.956Z,20.10
2022-08-29T17:58:10.238Z,20.00
2022-08-29T18:00:40.034Z,19.90
2022-08-29T18:03:08.152Z,19.90
2022-08-29T18:05:36.300Z,19.80
2022-08-29T18:08:05.079Z,19.70
2022-08-29T18:10:33.685Z,19.60
2022-08-29T18:13:01.927Z,19.50
2022-08-29T18:15:30.178Z,19.50
2022-08-29T18:18:05.750Z,19.40
2022-08-29T18:20:33.946Z,19.30
2022-08-29T18:23:02.235Z,19.20
2022-08-29T18:25:31.120Z,19.10
2022-08-29T18:28:00.206Z,19.00
2022-08-29T18:30:28.434Z,18.90
2022-08-29T18:32:56.562Z,18.80
2022-08-29T18:35:26.328Z,18.60
2022-08-29T18:37:54.767Z,18.60
2022-08-29T18:40:25.613Z,18.50
2022-08-29T18:42:54.249Z,18.40
2022-08-29T18:45:22.622Z,18.40
2022-08-29T18:47:50.828Z,18.30
2022-08-29T18:50:37.178Z,18.20
2022-08-29T18:53:10.806Z,18.10
2022-08-29T18:55:39.423Z,18.10
2022-08-29T18:58:08.942Z,18.00
2022-08-29T19:00:37.393Z,18.00
2022-08-29T19:03:06.611Z,17.90
2022-08-29T19:05:36.517Z,17.80
2022-08-29T19:08:06.397Z,17.80
2022-08-29T19:10:35.429Z,17.80
2022-08-29T19:13:04.279Z,17.70
2022-08-29T19:15:32.578Z,17.60
2022-08-29T19:18:01.144Z,17.60
2022-08-29T19:20:47.786Z,17.50
2022-08-29T19:23:18.468Z,17.40
2022-08-29T19:25:46.727Z,17.30
2022-08-29T19:28:15.697Z,17.20
2022-08-29T19:30:44.713Z,17.20
2022-08-29T19:33:15.228Z,17.10
2022-08-29T19:35:43.575Z,17.00
2022-08-29T19:38:12.785Z,16.90
2022-08-29T19:40:42.335Z,16.90
2022-08-29T19:43:13.925Z,16.90
2022-08-29T19:45:44.232Z,16.90
2022-08-29T19:48:15.151Z,16.80
2022-08-29T19:50:47.499Z,16.80
2022-08-29T19:53:21.497Z,16.80
2022-08-29T19:55:56.682Z,16.70
2022-08-29T19:58:31.865Z,16.70
2022-08-29T20:01:01.842Z,16.70
2022-08-29T20:03:30.534Z,16.60
2022-08-29T20:05:59.633Z,16.60
2022-08-29T20:08:29.258Z,16.60
2022-08-29T20:11:01.067Z,16.50
2022-08-29T20:13:34.182Z,16.50
2022-08-29T20:16:04.365Z,16.40
2022-08-29T20:18:32.979Z,16.40
2022-08-29T20:21:01.383Z,16.40
2022-08-29T20:23:31.672Z,16.40
2022-08-29T20:26:01.997Z,16.40
2022-08-29T20:28:31.535Z,16.30
2022-08-29T20:31:00.192Z,16.30
2022-08-29T20:33:28.400Z,16.20
2022-08-29T20:36:14.647Z,16.10
2022-08-29T20:38:42.785Z,16.10
2022-08-29T20:41:15.138Z,16.00
2022-08-29T20:43:49.539Z,15.90
2022-08-29T20:46:17.919Z,15.90
2022-08-29T20:48:46.334Z,15.90
2022-08-29T20:51:14.756Z,15.80
2022-08-29T20:53:43.312Z,15.80
2022-08-29T20:56:12.887Z,15.80
2022-08-29T20:58:41.319Z,15.80
2022-08-29T21:01:09.906Z,15.80
2022-08-29T21:03:55.355Z,15.80
2022-08-29T21:06:23.464Z,15.70
2022-08-29T21:08:51.482Z,15.60
2022-08-29T21:11:21.081Z,15.60
2022-08-29T21:13:53.181Z,15.60
2022-08-29T21:16:21.854Z,15.50
2022-08-29T21:18:52.367Z,15.40
2022-08-29T21:21:24.659Z,15.30
2022-08-29T21:23:53.569Z,15.20
2022-08-29T21:26:23.071Z,15.10
2022-08-29T21:28:51.287Z,15.00
2022-08-29T21:31:22.030Z,15.00
2022-08-29T21:33:50.083Z,15.00
2022-08-29T21:36:20.642Z,14.90
2022-08-29T21:38:52.280Z,14.90
2022-08-29T21:41:20.617Z,14.90
2022-08-29T21:43:50.307Z,14.80
2022-08-29T21:46:19.991Z,14.80
2022-08-29T21:48:53.460Z,14.80
2022-08-29T21:51:24.710Z,14.70
2022-08-29T21:53:55.458Z,14.70
2022-08-29T21:56:24.463Z,14.60
2022-08-29T21:58:55.839Z,14.60
2022-08-29T22:01:26.897Z,14.50
2022-08-29T22:03:56.098Z,14.50
2022-08-29T22:06:25.607Z,14.50
2022-08-29T22:08:56.665Z,14.40
2022-08-29T22:11:37.218Z,14.40
2022-08-29T22:14:08.763Z,14.40
2022-08-29T22:16:37.105Z,14.40
2022-08-29T22:19:07.682Z,14.30
2022-08-29T22:21:38.242Z,14.30
2022-08-29T22:24:07.898Z,14.30
2022-08-29T22:26:36.875Z,14.30
2022-08-29T22:29:05.375Z,14.20
2022-08-29T22:31:35.240Z,14.20
2022-08-29T22:34:05.418Z,14.20
2022-08-29T22:36:34.785Z,14.10
2022-08-29T22:39:02.840Z,14.10
2022-08-29T22:41:31.196Z,14.10
2022-08-29T22:46:52.766Z,14.10
2022-08-29T22:49:21.303Z,14.00
2022-08-29T22:51:49.411Z,14.00
2022-08-29T22:54:35.869Z,14.00
2022-08-29T22:57:05.052Z,14.00
2022-08-29T22:59:33.757Z,14.00
2022-08-29T23:02:03.452Z,13.90
2022-08-29T23:04:31.638Z,13.90
2022-08-29T23:07:00.049Z,13.80
2022-08-29T23:09:28.204Z,13.80
2022-08-29T23:12:03.493Z,13.80
2022-08-29T23:14:34.538Z,13.80
2022-08-29T23:17:04.109Z,13.90
2022-08-29T23:19:32.426Z,13.80
2022-08-29T23:22:02.266Z,13.80
2022-08-29T23:24:30.671Z,13.80
2022-08-29T23:26:58.978Z,13.80
2022-08-29T23:29:27.502Z,13.70
2022-08-29T23:31:55.555Z,13.80
2022-08-29T23:34:25.102Z,13.80
2022-08-29T23:36:53.192Z,13.70
2022-08-29T23:39:21.214Z,13.70
2022-08-29T23:41:49.248Z,13.80
2022-08-29T23:44:17.573Z,13.70
2022-08-29T23:46:45.726Z,13.70
2022-08-29T23:49:13.926Z,13.70
2022-08-29T23:51:43.427Z,13.60
2022-08-29T23:54:11.491Z,13.60
2022-08-29T23:56:39.576Z,13.50
2022-08-29T23:59:07.622Z,13.50
